FMEP Airport Information

Runway Information
Runway 15 Length 4965 ft width 98 ft
Elevation 59 ft Threshold 0 ft Heading 129
Runway 33 Length 4965 ft Width 98 ft
Elevation 41 ft Threshold 0 ft Heading 309
Airport Frequencies
Type INFO Name PIERREFOND Frequency 122.4 MHZ
Airport Navaids
Type VOR-DME Name St Pierre Pierrefonds Frequency 115900 KHZ
Type NDB Name Pierrefonds/Etang Frequency 352 KHZ
Airport Weather Information & NOTAM
ADDS - METARS form results

(1046 UTC 22 October 2019)
Data provider http://aviationweather.gov/metar/data/
 
METAR text: FMEP 221030Z AUTO 14006KT 090V170 9999 BKN062 29/21 Q1012 BECMG 27012KT
Conditions at: FMEP (ST. PIERRE/FONDS, FR) observed 1030 UTC 22 October 2019
Temperature: 29.0°C (84°F)
Dewpoint: 21.0°C (70°F) [RH = 62%]
Pressure (altimeter): 29.88 inches Hg (1012.0 mb)
Winds: from the SE (140 degrees) at 7 MPH (6 knots; 3.1 m/s)
Visibility: 6 or more miles (10+ km)
Ceiling: 6200 feet AGL
Clouds: broken clouds at 6200 feet AGL
Weather: no significant weather observed at this time

METAR text: FMEP 221000Z AUTO 22006KT 190V250 9999 BKN062/// ///CB 28/21 Q1013 BECMG SCT040
Conditions at: FMEP (ST. PIERRE/FONDS, FR) observed 1000 UTC 22 October 2019
Temperature: 28.0°C (82°F)
Dewpoint: 21.0°C (70°F) [RH = 66%]
Pressure (altimeter): 29.91 inches Hg (1013.0 mb)
Winds: from the SW (220 degrees) at 7 MPH (6 knots; 3.1 m/s)
Visibility: 6 or more miles (10+ km)
Ceiling: 6200 feet AGL
Clouds: broken clouds at 6200 feet AGL
Weather: no significant weather observed at this time

Forecast for: FMEP (ST. PIERRE/FONDS, FR)
Text: TAF FMEP 220800Z 2209/2218 27012KT 9999 SCT040
Forecast period: 0900 to 1600 UTC 22 October 2019
Forecast type: FROM: standard forecast or significant change
Winds: from the W (270 degrees) at 14 MPH (12 knots; 6.2 m/s)
Visibility: 6 or more miles 10+ km)
Ceiling: at least 12,000 feet AGL
Clouds: scattered clouds at 4000 feet AGL
Weather: no significant weather forecast for this period
Text: BECMG 2216/2218 04005KT
Forecast period: 1600 to 1800 UTC 22 October 2019
Forecast type: BECOMING: Conditions expected to become as follows by 1800 UTC 22 October 2019
Winds: from the NE (40 degrees) at 6 MPH (5 knots; 2.6 m/s)
Visibility: 6 or more miles 10+ km)
Ceiling: at least 12,000 feet AGL
Clouds: scattered clouds at 4000 feet AGL
Weather: no significant weather forecast for this period